sensor_id;sensor_type;location;lat;lon;timestamp;pressure;altitude;pressure_sealevel;temperature;humidity
12879;BME280;20617;49.476;10.986;2023-05-23T00:01:24;97817.06;;;20.02;100.00
12879;BME280;20617;49.476;10.986;2023-05-23T00:03:32;97820.53;;;20.02;100.00
12879;BME280;20617;49.476;10.986;2023-05-23T00:05:41;97819.69;;;20.02;100.00
12879;BME280;20617;49.476;10.986;2023-05-23T00:07:48;97820.53;;;20.02;100.00
12879;BME280;20617;49.476;10.986;2023-05-23T00:09:56;97830.09;;;19.94;100.00
12879;BME280;20617;49.476;10.986;2023-05-23T00:12:01;97828.69;;;19.89;100.00
12879;BME280;20617;49.476;10.986;2023-05-23T00:14:05;97829.38;;;19.82;100.00
12879;BME280;20617;49.476;10.986;2023-05-23T00:16:11;97826.84;;;19.80;100.00
12879;BME280;20617;49.476;10.986;2023-05-23T00:18:15;97832.81;;;19.73;100.00
12879;BME280;20617;49.476;10.986;2023-05-23T00:20:20;97826.66;;;19.72;100.00
12879;BME280;20617;49.476;10.986;2023-05-23T00:22:25;97836.66;;;19.68;100.00
12879;BME280;20617;49.476;10.986;2023-05-23T00:24:30;97836.66;;;19.68;100.00
12879;BME280;20617;49.476;10.986;2023-05-23T00:26:38;97842.28;;;19.75;100.00
12879;BME280;20617;49.476;10.986;2023-05-23T00:28:43;97840.00;;;19.71;100.00
12879;BME280;20617;49.476;10.986;2023-05-23T00:30:48;97842.22;;;19.65;100.00
12879;BME280;20617;49.476;10.986;2023-05-23T00:32:54;97842.84;;;19.58;100.00
12879;BME280;20617;49.476;10.986;2023-05-23T00:35:00;97836.72;;;19.57;100.00
12879;BME280;20617;49.476;10.986;2023-05-23T00:37:04;97837.94;;;19.53;100.00
12879;BME280;20617;49.476;10.986;2023-05-23T00:39:09;97842.53;;;19.51;100.00
12879;BME280;20617;49.476;10.986;2023-05-23T00:41:22;97848.06;;;19.48;100.00
12879;BME280;20617;49.476;10.986;2023-05-23T00:43:30;97845.69;;;19.45;100.00
12879;BME280;20617;49.476;10.986;2023-05-23T00:45:35;97846.66;;;19.44;100.00
12879;BME280;20617;49.476;10.986;2023-05-23T00:47:42;97846.66;;;19.44;100.00
12879;BME280;20617;49.476;10.986;2023-05-23T00:49:48;97854.97;;;19.39;100.00
12879;BME280;20617;49.476;10.986;2023-05-23T00:51:53;97849.94;;;19.36;100.00
12879;BME280;20617;49.476;10.986;2023-05-23T00:53:59;97856.06;;;19.37;100.00
12879;BME280;20617;49.476;10.986;2023-05-23T00:56:05;97855.94;;;19.38;100.00
12879;BME280;20617;49.476;10.986;2023-05-23T00:58:10;97861.47;;;19.35;100.00
12879;BME280;20617;49.476;10.986;2023-05-23T01:00:19;97859.78;;;19.34;100.00
12879;BME280;20617;49.476;10.986;2023-05-23T01:02:25;97866.75;;;19.35;100.00
12879;BME280;20617;49.476;10.986;2023-05-23T01:04:31;97856.66;;;19.40;100.00
12879;BME280;20617;49.476;10.986;2023-05-23T01:06:37;97853.66;;;19.34;100.00
12879;BME280;20617;49.476;10.986;2023-05-23T01:08:42;97853.41;;;19.37;100.00
12879;BME280;20617;49.476;10.986;2023-05-23T01:10:47;97855.78;;;19.40;100.00
12879;BME280;20617;49.476;10.986;2023-05-23T01:13:04;97855.22;;;19.36;100.00
12879;BME280;20617;49.476;10.986;2023-05-23T01:15:15;97854.66;;;19.33;100.00
12879;BME280;20617;49.476;10.986;2023-05-23T01:17:30;97855.47;;;19.33;100.00
12879;BME280;20617;49.476;10.986;2023-05-23T01:19:54;97851.44;;;19.29;100.00
12879;BME280;20617;49.476;10.986;2023-05-23T01:22:11;97859.16;;;19.21;100.00
12879;BME280;20617;49.476;10.986;2023-05-23T01:24:31;97852.31;;;19.18;100.00
12879;BME280;20617;49.476;10.986;2023-05-23T01:26:49;97851.03;;;19.13;100.00
12879;BME280;20617;49.476;10.986;2023-05-23T01:29:08;97854.56;;;19.02;100.00
12879;BME280;20617;49.476;10.986;2023-05-23T01:31:15;97849.69;;;18.97;100.00
12879;BME280;20617;49.476;10.986;2023-05-23T01:33:21;97853.88;;;19.00;100.00
12879;BME280;20617;49.476;10.986;2023-05-23T01:35:28;97857.72;;;18.96;100.00
12879;BME280;20617;49.476;10.986;2023-05-23T01:37:34;97853.91;;;18.89;100.00
12879;BME280;20617;49.476;10.986;2023-05-23T01:39:39;97853.34;;;18.85;100.00
12879;BME280;20617;49.476;10.986;2023-05-23T01:41:44;97850.56;;;18.87;100.00
12879;BME280;20617;49.476;10.986;2023-05-23T01:43:51;97857.84;;;18.94;100.00
12879;BME280;20617;49.476;10.986;2023-05-23T01:46:00;97862.28;;;18.94;100.00
12879;BME280;20617;49.476;10.986;2023-05-23T01:48:08;97853.72;;;18.81;100.00
12879;BME280;20617;49.476;10.986;2023-05-23T01:50:15;97858.25;;;18.78;100.00
12879;BME280;20617;49.476;10.986;2023-05-23T01:52:21;97851.91;;;18.81;100.00
12879;BME280;20617;49.476;10.986;2023-05-23T01:54:27;97860.06;;;18.78;100.00
12879;BME280;20617;49.476;10.986;2023-05-23T01:56:33;97860.91;;;18.78;100.00
12879;BME280;20617;49.476;10.986;2023-05-23T01:58:39;97865.34;;;18.78;100.00
12879;BME280;20617;49.476;10.986;2023-05-23T02:00:44;97865.09;;;18.81;100.00
12879;BME280;20617;49.476;10.986;2023-05-23T02:02:52;97857.06;;;18.83;100.00
12879;BME280;20617;49.476;10.986;2023-05-23T02:04:58;97865.94;;;18.70;100.00
12879;BME280;20617;49.476;10.986;2023-05-23T02:07:03;97867.28;;;18.65;100.00
12879;BME280;20617;49.476;10.986;2023-05-23T02:09:08;97871.13;;;18.61;100.00
12879;BME280;20617;49.476;10.986;2023-05-23T02:11:13;97863.97;;;18.51;100.00
12879;BME280;20617;49.476;10.986;2023-05-23T02:13:18;97863.13;;;18.51;100.00
12879;BME280;20617;49.476;10.986;2023-05-23T02:15:23;97862.66;;;18.46;100.00
12879;BME280;20617;49.476;10.986;2023-05-23T02:17:28;97865.53;;;18.43;100.00
12879;BME280;20617;49.476;10.986;2023-05-23T02:19:36;97867.69;;;18.38;100.00
12879;BME280;20617;49.476;10.986;2023-05-23T02:21:41;97872.63;;;18.31;100.00
12879;BME280;20617;49.476;10.986;2023-05-23T02:23:46;97874.19;;;18.22;100.00
12879;BME280;20617;49.476;10.986;2023-05-23T02:25:51;97871.91;;;18.29;100.00
12879;BME280;20617;49.476;10.986;2023-05-23T02:28:00;97865.56;;;18.20;100.00
12879;BME280;20617;49.476;10.986;2023-05-23T02:30:05;97866.19;;;18.13;100.00
12879;BME280;20617;49.476;10.986;2023-05-23T02:32:11;97866.88;;;18.15;100.00
12879;BME280;20617;49.476;10.986;2023-05-23T02:34:15;97877.09;;;18.08;100.00
12879;BME280;20617;49.476;10.986;2023-05-23T02:36:23;97883.06;;;18.10;100.00
12879;BME280;20617;49.476;10.986;2023-05-23T02:38:29;97890.16;;;18.09;100.00
12879;BME280;20617;49.476;10.986;2023-05-23T02:40:34;97886.31;;;18.14;100.00
12879;BME280;20617;49.476;10.986;2023-05-23T02:42:39;97889.53;;;18.17;100.00
12879;BME280;20617;49.476;10.986;2023-05-23T02:44:44;97895.53;;;18.19;100.00
12879;BME280;20617;49.476;10.986;2023-05-23T02:46:49;97898.50;;;18.15;100.00
12879;BME280;20617;49.476;10.986;2023-05-23T02:48:54;97896.84;;;18.14;100.00
12879;BME280;20617;49.476;10.986;2023-05-23T02:51:00;97892.53;;;18.13;100.00
12879;BME280;20617;49.476;10.986;2023-05-23T02:53:08;97902.00;;;18.15;100.00
12879;BME280;20617;49.476;10.986;2023-05-23T02:55:14;97893.38;;;18.13;100.00
12879;BME280;20617;49.476;10.986;2023-05-23T02:57:21;97904.41;;;18.07;100.00
12879;BME280;20617;49.476;10.986;2023-05-23T02:59:27;97905.22;;;18.07;100.00
12879;BME280;20617;49.476;10.986;2023-05-23T03:01:32;97916.50;;;18.09;100.00
12879;BME280;20617;49.476;10.986;2023-05-23T03:03:37;97911.66;;;18.03;100.00
12879;BME280;20617;49.476;10.986;2023-05-23T03:05:43;97914.09;;;18.06;100.00
12879;BME280;20617;49.476;10.986;2023-05-23T03:07:48;97914.78;;;18.08;100.00
12879;BME280;20617;49.476;10.986;2023-05-23T03:09:58;97913.72;;;18.00;100.00
12879;BME280;20617;49.476;10.986;2023-05-23T03:12:03;97911.22;;;17.98;100.00
12879;BME280;20617;49.476;10.986;2023-05-23T03:14:08;97921.28;;;18.04;100.00
12879;BME280;20617;49.476;10.986;2023-05-23T03:16:13;97924.16;;;18.01;100.00
12879;BME280;20617;49.476;10.986;2023-05-23T03:18:18;97925.31;;;17.97;100.00
12879;BME280;20617;49.476;10.986;2023-05-23T03:20:24;97922.94;;;17.94;100.00
12879;BME280;20617;49.476;10.986;2023-05-23T03:22:29;97923.31;;;17.90;100.00
12879;BME280;20617;49.476;10.986;2023-05-23T03:24:37;97924.25;;;17.88;100.00
12879;BME280;20617;49.476;10.986;2023-05-23T03:26:44;97928.66;;;17.88;100.00
12879;BME280;20617;49.476;10.986;2023-05-23T03:28:49;97935.97;;;17.84;100.00
12879;BME280;20617;49.476;10.986;2023-05-23T03:30:55;97940.16;;;17.87;100.00
12879;BME280;20617;49.476;10.986;2023-05-23T03:33:00;97939.34;;;17.86;100.00
12879;BME280;20617;49.476;10.986;2023-05-23T03:35:08;97955.72;;;17.79;100.00
12879;BME280;20617;49.476;10.986;2023-05-23T03:37:13;97953.19;;;17.77;100.00
12879;BME280;20617;49.476;10.986;2023-05-23T03:39:18;97957.94;;;17.72;100.00
12879;BME280;20617;49.476;10.986;2023-05-23T03:41:24;97969.41;;;17.71;100.00
12879;BME280;20617;49.476;10.986;2023-05-23T03:43:32;97963.50;;;17.80;100.00
12879;BME280;20617;49.476;10.986;2023-05-23T03:45:37;97959.69;;;17.84;100.00
12879;BME280;20617;49.476;10.986;2023-05-23T03:47:47;97957.63;;;17.88;100.00
12879;BME280;20617;49.476;10.986;2023-05-23T03:49:53;97954.06;;;17.89;100.00
12879;BME280;20617;49.476;10.986;2023-05-23T03:52:01;97964.00;;;17.97;100.00
12879;BME280;20617;49.476;10.986;2023-05-23T03:54:06;97955.72;;;17.90;100.00
12879;BME280;20617;49.476;10.986;2023-05-23T03:56:11;97960.75;;;17.93;100.00
12879;BME280;20617;49.476;10.986;2023-05-23T03:58:17;97963.63;;;17.90;100.00
12879;BME280;20617;49.476;10.986;2023-05-23T04:00:29;97960.88;;;17.92;100.00
12879;BME280;20617;49.476;10.986;2023-05-23T04:02:38;97968.91;;;17.90;100.00
12879;BME280;20617;49.476;10.986;2023-05-23T04:04:43;97974.16;;;17.90;100.00
12879;BME280;20617;49.476;10.986;2023-05-23T04:06:49;97965.78;;;17.96;100.00
12879;BME280;20617;49.476;10.986;2023-05-23T04:08:54;97965.31;;;18.02;100.00
12879;BME280;20617;49.476;10.986;2023-05-23T04:11:00;97964.59;;;18.00;100.00
12879;BME280;20617;49.476;10.986;2023-05-23T04:13:12;97964.22;;;17.94;100.00
12879;BME280;20617;49.476;10.986;2023-05-23T04:15:17;97973.34;;;18.01;100.00
12879;BME280;20617;49.476;10.986;2023-05-23T04:17:33;97972.38;;;18.02;100.00
12879;BME280;20617;49.476;10.986;2023-05-23T04:19:40;97980.41;;;17.89;100.00
12879;BME280;20617;49.476;10.986;2023-05-23T04:21:45;97979.66;;;17.87;100.00
12879;BME280;20617;49.476;10.986;2023-05-23T04:23:52;97986.75;;;17.86;100.00
12879;BME280;20617;49.476;10.986;2023-05-23T04:25:57;97980.38;;;17.78;100.00
12879;BME280;20617;49.476;10.986;2023-05-23T04:28:10;97993.53;;;17.78;100.00
12879;BME280;20617;49.476;10.986;2023-05-23T04:30:15;97993.59;;;17.76;100.00
12879;BME280;20617;49.476;10.986;2023-05-23T04:32:21;97990.78;;;17.79;100.00
12879;BME280;20617;49.476;10.986;2023-05-23T04:34:29;97998.81;;;17.78;100.00
12879;BME280;20617;49.476;10.986;2023-05-23T04:36:35;97992.34;;;17.82;100.00
12879;BME280;20617;49.476;10.986;2023-05-23T04:38:42;97998.56;;;17.81;100.00
12879;BME280;20617;49.476;10.986;2023-05-23T04:40:47;97999.91;;;17.86;100.00
12879;BME280;20617;49.476;10.986;2023-05-23T04:43:12;98001.81;;;17.84;100.00
12879;BME280;20617;49.476;10.986;2023-05-23T04:45:27;98005.28;;;17.85;100.00
12879;BME280;20617;49.476;10.986;2023-05-23T04:47:36;98009.09;;;17.81;100.00
12879;BME280;20617;49.476;10.986;2023-05-23T04:49:46;98006.03;;;17.74;100.00
12879;BME280;20617;49.476;10.986;2023-05-23T04:51:52;98012.41;;;17.72;100.00
12879;BME280;20617;49.476;10.986;2023-05-23T04:54:02;98013.75;;;17.77;100.00
12879;BME280;20617;49.476;10.986;2023-05-23T04:56:07;98009.94;;;17.81;100.00
12879;BME280;20617;49.476;10.986;2023-05-23T04:58:14;98016.66;;;17.97;100.00
12879;BME280;20617;49.476;10.986;2023-05-23T05:00:19;98017.72;;;17.94;100.00
12879;BME280;20617;49.476;10.986;2023-05-23T05:02:25;98012.38;;;17.96;100.00
12879;BME280;20617;49.476;10.986;2023-05-23T05:04:38;98014.06;;;18.08;100.00
12879;BME280;20617;49.476;10.986;2023-05-23T05:06:47;98015.28;;;18.15;100.00
12879;BME280;20617;49.476;10.986;2023-05-23T05:08:53;98015.16;;;18.17;100.00
12879;BME280;20617;49.476;10.986;2023-05-23T05:10:59;98017.78;;;18.17;100.00
12879;BME280;20617;49.476;10.986;2023-05-23T05:13:04;98032.03;;;18.25;100.00
12879;BME280;20617;49.476;10.986;2023-05-23T05:15:17;98028.22;;;18.18;100.00
12879;BME280;20617;49.476;10.986;2023-05-23T05:17:27;98030.84;;;18.18;100.00
12879;BME280;20617;49.476;10.986;2023-05-23T05:19:41;98030.59;;;18.10;100.00
12879;BME280;20617;49.476;10.986;2023-05-23T05:21:48;98033.00;;;18.13;100.00
12879;BME280;20617;49.476;10.986;2023-05-23T05:23:53;98037.56;;;18.22;100.00
12879;BME280;20617;49.476;10.986;2023-05-23T05:26:01;98031.22;;;18.25;100.00
12879;BME280;20617;49.476;10.986;2023-05-23T05:28:06;98031.44;;;18.22;100.00
12879;BME280;20617;49.476;10.986;2023-05-23T05:30:24;98032.28;;;18.22;100.00
12879;BME280;20617;49.476;10.986;2023-05-23T05:32:33;98031.56;;;18.20;100.00
12879;BME280;20617;49.476;10.986;2023-05-23T05:34:38;98035.75;;;18.23;100.00
12879;BME280;20617;49.476;10.986;2023-05-23T05:36:44;98023.91;;;18.28;100.00
12879;BME280;20617;49.476;10.986;2023-05-23T05:38:54;98028.91;;;18.20;100.00
12879;BME280;20617;49.476;10.986;2023-05-23T05:40:59;98028.09;;;18.20;100.00
12879;BME280;20617;49.476;10.986;2023-05-23T05:43:09;98031.06;;;18.26;100.00
12879;BME280;20617;49.476;10.986;2023-05-23T05:45:16;98030.63;;;18.32;100.00
12879;BME280;20617;49.476;10.986;2023-05-23T05:47:22;98030.84;;;18.41;100.00
12879;BME280;20617;49.476;10.986;2023-05-23T05:49:27;98036.84;;;18.43;100.00
12879;BME280;20617;49.476;10.986;2023-05-23T05:51:32;98028.84;;;18.44;100.00
12879;BME280;20617;49.476;10.986;2023-05-23T05:53:37;98027.38;;;18.51;100.00
12879;BME280;20617;49.476;10.986;2023-05-23T05:55:45;98030.03;;;18.51;100.00
12879;BME280;20617;49.476;10.986;2023-05-23T05:57:50;98033.00;;;18.69;100.00
12879;BME280;20617;49.476;10.986;2023-05-23T05:59:57;98030.28;;;18.82;100.00
12879;BME280;20617;49.476;10.986;2023-05-23T06:02:04;98030.03;;;18.85;100.00
12879;BME280;20617;49.476;10.986;2023-05-23T06:04:09;98032.44;;;18.88;100.00
12879;BME280;20617;49.476;10.986;2023-05-23T06:06:15;98021.97;;;18.98;100.00
12879;BME280;20617;49.476;10.986;2023-05-23T06:08:21;98018.56;;;19.18;100.00
12879;BME280;20617;49.476;10.986;2023-05-23T06:10:27;98015.28;;;19.37;100.00
12879;BME280;20617;49.476;10.986;2023-05-23T06:12:34;98015.09;;;19.50;100.00
12879;BME280;20617;49.476;10.986;2023-05-23T06:14:40;98011.69;;;19.71;100.00
12879;BME280;20617;49.476;10.986;2023-05-23T06:16:45;98017.69;;;19.73;100.00
12879;BME280;20617;49.476;10.986;2023-05-23T06:18:51;98015.16;;;19.71;100.00
12879;BME280;20617;49.476;10.986;2023-05-23T06:20:58;98015.41;;;19.89;100.00
12879;BME280;20617;49.476;10.986;2023-05-23T06:23:03;98007.44;;;19.79;100.00
12879;BME280;20617;49.476;10.986;2023-05-23T06:25:09;98003.81;;;19.80;100.00
12879;BME280;20617;49.476;10.986;2023-05-23T06:27:14;98010.31;;;19.76;100.00
12879;BME280;20617;49.476;10.986;2023-05-23T06:29:23;98004.84;;;19.89;100.00
12879;BME280;20617;49.476;10.986;2023-05-23T06:31:29;98007.22;;;19.92;100.00
12879;BME280;20617;49.476;10.986;2023-05-23T06:33:34;98005.59;;;20.01;100.00
12879;BME280;20617;49.476;10.986;2023-05-23T06:35:39;98013.47;;;20.12;100.00
12879;BME280;20617;49.476;10.986;2023-05-23T06:37:44;98011.31;;;20.27;100.00
12879;BME280;20617;49.476;10.986;2023-05-23T06:39:49;98008.59;;;20.38;100.00
12879;BME280;20617;49.476;10.986;2023-05-23T06:41:56;98005.25;;;20.57;100.00
12879;BME280;20617;49.476;10.986;2023-05-23T06:44:13;98004.13;;;20.60;100.00
12879;BME280;20617;49.476;10.986;2023-05-23T06:46:21;98007.63;;;20.60;100.00
12879;BME280;20617;49.476;10.986;2023-05-23T06:48:27;98013.78;;;20.49;100.00
12879;BME280;20617;49.476;10.986;2023-05-23T06:50:32;98017.38;;;20.69;100.00
12879;BME280;20617;49.476;10.986;2023-05-23T06:52:38;98011.34;;;20.98;100.00
12879;BME280;20617;49.476;10.986;2023-05-23T06:54:44;98004.78;;;21.02;100.00
12879;BME280;20617;49.476;10.986;2023-05-23T06:56:49;98012.28;;;20.87;100.00
12879;BME280;20617;49.476;10.986;2023-05-23T06:58:55;98013.28;;;20.55;100.00
12879;BME280;20617;49.476;10.986;2023-05-23T07:01:01;98022.13;;;20.45;100.00
12879;BME280;20617;49.476;10.986;2023-05-23T07:03:15;98025.63;;;20.76;100.00
12879;BME280;20617;49.476;10.986;2023-05-23T07:05:20;98025.88;;;20.73;100.00
12879;BME280;20617;49.476;10.986;2023-05-23T07:07:25;98026.31;;;20.78;100.00
12879;BME280;20617;49.476;10.986;2023-05-23T07:09:30;98030.88;;;20.66;100.00
12879;BME280;20617;49.476;10.986;2023-05-23T07:11:43;98043.94;;;20.58;100.00
12879;BME280;20617;49.476;10.986;2023-05-23T07:13:49;98041.22;;;20.48;100.00
12879;BME280;20617;49.476;10.986;2023-05-23T07:16:04;98037.97;;;20.14;100.00
12879;BME280;20617;49.476;10.986;2023-05-23T07:18:20;98040.19;;;20.40;100.00
12879;BME280;20617;49.476;10.986;2023-05-23T07:20:25;98038.44;;;20.50;100.00
12879;BME280;20617;49.476;10.986;2023-05-23T07:22:37;98037.28;;;20.64;100.00
12879;BME280;20617;49.476;10.986;2023-05-23T07:24:42;98039.91;;;20.64;100.00
12879;BME280;20617;49.476;10.986;2023-05-23T07:26:49;98032.31;;;20.49;100.00
12879;BME280;20617;49.476;10.986;2023-05-23T07:28:57;98038.53;;;20.60;100.00
12879;BME280;20617;49.476;10.986;2023-05-23T07:31:02;98030.06;;;20.75;100.00
12879;BME280;20617;49.476;10.986;2023-05-23T07:33:09;98031.06;;;20.84;100.00
12879;BME280;20617;49.476;10.986;2023-05-23T07:35:19;98029.88;;;20.98;100.00
12879;BME280;20617;49.476;10.986;2023-05-23T07:37:27;98034.84;;;20.91;100.00
12879;BME280;20617;49.476;10.986;2023-05-23T07:39:32;98035.72;;;20.61;100.00
12879;BME280;20617;49.476;10.986;2023-05-23T07:41:38;98046.19;;;20.63;100.00
12879;BME280;20617;49.476;10.986;2023-05-23T07:43:43;98048.59;;;20.75;100.00
12879;BME280;20617;49.476;10.986;2023-05-23T07:45:48;98042.69;;;21.02;100.00
12879;BME280;20617;49.476;10.986;2023-05-23T07:47:53;98044.03;;;20.87;100.00
12879;BME280;20617;49.476;10.986;2023-05-23T07:49:59;98042.22;;;20.88;100.00
12879;BME280;20617;49.476;10.986;2023-05-23T07:52:07;98042.03;;;20.79;100.00
12879;BME280;20617;49.476;10.986;2023-05-23T07:54:13;98041.22;;;20.79;100.00
12879;BME280;20617;49.476;10.986;2023-05-23T07:56:18;98038.91;;;20.95;100.00
12879;BME280;20617;49.476;10.986;2023-05-23T07:58:24;98036.72;;;21.10;100.00
12879;BME280;20617;49.476;10.986;2023-05-23T08:00:29;98040.47;;;21.08;100.00
12879;BME280;20617;49.476;10.986;2023-05-23T08:02:42;98040.94;;;21.32;100.00
12879;BME280;20617;49.476;10.986;2023-05-23T08:04:55;98046.97;;;21.63;100.00
12879;BME280;20617;49.476;10.986;2023-05-23T08:07:01;98043.38;;;21.64;100.00
12879;BME280;20617;49.476;10.986;2023-05-23T08:09:19;98045.53;;;21.30;100.00
12879;BME280;20617;49.476;10.986;2023-05-23T08:11:28;98053.84;;;21.06;100.00
12879;BME280;20617;49.476;10.986;2023-05-23T08:13:34;98052.00;;;20.97;100.00
12879;BME280;20617;49.476;10.986;2023-05-23T08:15:58;98046.84;;;20.95;100.00
12879;BME280;20617;49.476;10.986;2023-05-23T08:18:07;98054.63;;;20.97;100.00
12879;BME280;20617;49.476;10.986;2023-05-23T08:22:19;98044.06;;;21.57;100.00
12879;BME280;20617;49.476;10.986;2023-05-23T08:24:27;98045.16;;;21.54;100.00
12879;BME280;20617;49.476;10.986;2023-05-23T08:26:32;98045.81;;;21.27;100.00
12879;BME280;20617;49.476;10.986;2023-05-23T08:28:40;98043.09;;;20.98;100.00
12879;BME280;20617;49.476;10.986;2023-05-23T08:30:45;98053.13;;;20.94;100.00
12879;BME280;20617;49.476;10.986;2023-05-23T08:32:50;98047.69;;;20.96;100.00
12879;BME280;20617;49.476;10.986;2023-05-23T08:34:58;98051.13;;;20.87;100.00
12879;BME280;20617;49.476;10.986;2023-05-23T08:37:04;98052.03;;;21.07;100.00
12879;BME280;20617;49.476;10.986;2023-05-23T08:39:10;98055.03;;;21.33;100.00
12879;BME280;20617;49.476;10.986;2023-05-23T08:41:29;98045.59;;;21.59;100.00
12879;BME280;20617;49.476;10.986;2023-05-23T08:43:42;98055.63;;;21.85;100.00
12879;BME280;20617;49.476;10.986;2023-05-23T08:45:55;98043.63;;;21.90;100.00
12879;BME280;20617;49.476;10.986;2023-05-23T08:48:07;98053.25;;;21.72;100.00
12879;BME280;20617;49.476;10.986;2023-05-23T08:50:17;98063.69;;;21.44;100.00
12879;BME280;20617;49.476;10.986;2023-05-23T08:52:26;98061.13;;;21.23;100.00
12879;BME280;20617;49.476;10.986;2023-05-23T08:54:34;98072.78;;;21.11;100.00
12879;BME280;20617;49.476;10.986;2023-05-23T08:56:43;98065.56;;;21.13;100.00
12879;BME280;20617;49.476;10.986;2023-05-23T08:58:49;98073.59;;;21.02;100.00
12879;BME280;20617;49.476;10.986;2023-05-23T09:00:56;98071.78;;;20.93;100.00
12879;BME280;20617;49.476;10.986;2023-05-23T09:03:01;98069.25;;;20.91;100.00
12879;BME280;20617;49.476;10.986;2023-05-23T09:05:28;98072.94;;;21.10;100.00
12879;BME280;20617;49.476;10.986;2023-05-23T09:07:34;98079.25;;;21.28;100.00
12879;BME280;20617;49.476;10.986;2023-05-23T09:09:40;98070.06;;;21.32;100.00
12879;BME280;20617;49.476;10.986;2023-05-23T09:11:50;98080.91;;;21.29;100.00
12879;BME280;20617;49.476;10.986;2023-05-23T09:13:56;98079.50;;;21.15;100.00
12879;BME280;20617;49.476;10.986;2023-05-23T09:16:02;98081.16;;;21.07;100.00
12879;BME280;20617;49.476;10.986;2023-05-23T09:18:14;98095.88;;;20.99;100.00
12879;BME280;20617;49.476;10.986;2023-05-23T09:20:18;98095.19;;;20.97;100.00
12879;BME280;20617;49.476;10.986;2023-05-23T09:22:30;98098.69;;;20.98;100.00
12879;BME280;20617;49.476;10.986;2023-05-23T09:24:40;98088.94;;;21.08;100.00
12879;BME280;20617;49.476;10.986;2023-05-23T09:26:46;98087.00;;;21.10;100.00
12879;BME280;20617;49.476;10.986;2023-05-23T09:28:56;98096.97;;;20.97;100.00
12879;BME280;20617;49.476;10.986;2023-05-23T09:31:02;98098.56;;;20.69;100.00
12879;BME280;20617;49.476;10.986;2023-05-23T09:33:09;98098.66;;;20.67;100.00
12879;BME280;20617;49.476;10.986;2023-05-23T09:35:15;98097.13;;;20.95;100.00
12879;BME280;20617;49.476;10.986;2023-05-23T09:37:19;98101.63;;;21.14;100.00
12879;BME280;20617;49.476;10.986;2023-05-23T09:39:25;98099.88;;;21.34;100.00
12879;BME280;20617;49.476;10.986;2023-05-23T09:41:31;98102.34;;;21.16;100.00
12879;BME280;20617;49.476;10.986;2023-05-23T09:43:38;98101.22;;;21.09;100.00
12879;BME280;20617;49.476;10.986;2023-05-23T09:45:46;98104.78;;;20.89;100.00
12879;BME280;20617;49.476;10.986;2023-05-23T09:47:51;98112.09;;;21.06;100.00
12879;BME280;20617;49.476;10.986;2023-05-23T09:49:59;98109.19;;;21.29;100.00
12879;BME280;20617;49.476;10.986;2023-05-23T09:52:07;98106.88;;;21.35;100.00
12879;BME280;20617;49.476;10.986;2023-05-23T09:54:13;98115.69;;;21.55;100.00
12879;BME280;20617;49.476;10.986;2023-05-23T09:56:18;98121.97;;;21.64;100.00
12879;BME280;20617;49.476;10.986;2023-05-23T09:58:26;98121.13;;;21.54;100.00
12879;BME280;20617;49.476;10.986;2023-05-23T10:00:31;98117.78;;;21.42;100.00
12879;BME280;20617;49.476;10.986;2023-05-23T10:02:51;98122.63;;;21.37;100.00
12879;BME280;20617;49.476;10.986;2023-05-23T10:04:58;98126.25;;;21.36;100.00
12879;BME280;20617;49.476;10.986;2023-05-23T10:07:09;98126.34;;;21.34;100.00
12879;BME280;20617;49.476;10.986;2023-05-23T10:09:20;98130.34;;;21.09;100.00
12879;BME280;20617;49.476;10.986;2023-05-23T10:14:08;98131.03;;;20.39;100.00
12879;BME280;20617;49.476;10.986;2023-05-23T10:16:18;98129.91;;;20.31;100.00
12879;BME280;20617;49.476;10.986;2023-05-23T10:18:28;98121.06;;;20.42;100.00
12879;BME280;20617;49.476;10.986;2023-05-23T10:20:39;98120.41;;;20.50;100.00
12879;BME280;20617;49.476;10.986;2023-05-23T10:22:47;98125.00;;;20.69;100.00
12879;BME280;20617;49.476;10.986;2023-05-23T10:24:53;98118.16;;;20.66;100.00
12879;BME280;20617;49.476;10.986;2023-05-23T10:26:59;98126.69;;;21.00;100.00
12879;BME280;20617;49.476;10.986;2023-05-23T10:29:05;98117.50;;;21.14;100.00
12879;BME280;20617;49.476;10.986;2023-05-23T10:31:11;98119.88;;;21.08;100.00
12879;BME280;20617;49.476;10.986;2023-05-23T10:33:17;98123.81;;;21.23;100.00
12879;BME280;20617;49.476;10.986;2023-05-23T10:35:34;98135.56;;;21.30;100.00
12879;BME280;20617;49.476;10.986;2023-05-23T10:37:47;98138.16;;;21.20;100.00
12879;BME280;20617;49.476;10.986;2023-05-23T10:40:02;98137.63;;;21.27;100.00
12879;BME280;20617;49.476;10.986;2023-05-23T10:42:16;98140.28;;;21.27;100.00
12879;BME280;20617;49.476;10.986;2023-05-23T10:44:26;98145.25;;;21.10;100.00
12879;BME280;20617;49.476;10.986;2023-05-23T10:46:50;98137.84;;;21.14;100.00
12879;BME280;20617;49.476;10.986;2023-05-23T10:48:55;98131.34;;;21.18;100.00
12879;BME280;20617;49.476;10.986;2023-05-23T10:51:06;98133.84;;;21.29;100.00
12879;BME280;20617;49.476;10.986;2023-05-23T10:53:15;98141.63;;;21.52;100.00
12879;BME280;20617;49.476;10.986;2023-05-23T10:55:20;98134.81;;;21.68;100.00
12879;BME280;20617;49.476;10.986;2023-05-23T10:57:25;98135.09;;;21.75;100.00
12879;BME280;20617;49.476;10.986;2023-05-23T10:59:31;98147.75;;;21.52;100.00
12879;BME280;20617;49.476;10.986;2023-05-23T11:01:38;98142.78;;;21.59;100.00
12879;BME280;20617;49.476;10.986;2023-05-23T11:03:49;98140.78;;;21.61;100.00